Time;durP1;ratioP1;P1;durP2;ratioP2;P2;SDS_P1;SDS_P2;PMS_P1;PMS_P2;Temp;Humidity;BMP_temperature;BMP_pressure;BME280_temperature;BME280_humidity;BME280_pressure;Samples;Min_cycle;Max_cycle;Signal;HPM_P1;HPM_P2
2021/07/19 00:00:14;;;;;;;9.13;6.07;;;;;;;;;;5029753;28;20025;-72
2021/07/19 00:02:42;;;;;;;9.63;5.78;;;;;;;;;;5029699;28;20091;-72
2021/07/19 00:05:09;;;;;;;10.02;6.00;;;;;;;;;;5029523;28;20029;-72
2021/07/19 00:07:35;;;;;;;8.25;5.72;;;;;;;;;;5027955;28;20033;-72
2021/07/19 00:10:03;;;;;;;7.72;5.40;;;;;;;;;;5029253;28;20045;-72
2021/07/19 00:12:30;;;;;;;9.50;5.75;;;;;;;;;;5029341;28;20492;-73
2021/07/19 00:14:56;;;;;;;9.30;6.07;;;;;;;;;;5031320;28;20057;-72
2021/07/19 00:17:22;;;;;;;11.23;6.47;;;;;;;;;;5028323;28;20046;-72
2021/07/19 00:19:49;;;;;;;7.80;6.20;;;;;;;;;;5028160;28;20021;-73
2021/07/19 00:22:17;;;;;;;11.68;6.47;;;;;;;;;;5023413;28;20528;-73
2021/07/19 00:24:43;;;;;;;10.57;6.88;;;;;;;;;;5022492;28;20103;-72
2021/07/19 00:27:09;;;;;;;9.50;6.15;;;;;;;;;;5024104;28;20513;-72
2021/07/19 00:29:35;;;;;;;11.20;6.28;;;;;;;;;;5020663;28;20045;-72
2021/07/19 00:32:01;;;;;;;11.35;6.22;;;;;;;;;;5018830;28;20925;-72
2021/07/19 00:34:28;;;;;;;13.73;6.85;;;;;;;;;;5017537;28;20014;-72
2021/07/19 00:36:54;;;;;;;10.80;6.85;;;;;;;;;;5023634;28;20029;-72
2021/07/19 00:39:21;;;;;;;10.82;7.00;;;;;;;;;;5022470;28;20101;-72
2021/07/19 00:41:47;;;;;;;9.45;6.18;;;;;;;;;;5021527;28;20049;-72
2021/07/19 00:44:17;;;;;;;11.25;6.72;;;;;;;;;;5021249;28;20018;-72
2021/07/19 00:46:44;;;;;;;16.27;6.82;;;;;;;;;;5021467;28;20056;-72
2021/07/19 00:49:11;;;;;;;10.13;6.40;;;;;;;;;;5023394;28;20041;-72
2021/07/19 00:51:37;;;;;;;10.55;6.13;;;;;;;;;;5024808;28;20025;-72
2021/07/19 00:54:04;;;;;;;9.48;6.18;;;;;;;;;;5024591;28;20029;-72
2021/07/19 00:56:31;;;;;;;10.63;6.35;;;;;;;;;;5026027;28;20428;-72
2021/07/19 00:58:58;;;;;;;7.43;5.93;;;;;;;;;;5021533;28;20079;-72
2021/07/19 01:01:26;;;;;;;13.73;6.60;;;;;;;;;;5022804;28;20041;-71
2021/07/19 01:03:53;;;;;;;10.18;6.30;;;;;;;;;;5025505;28;20022;-72
2021/07/19 01:06:20;;;;;;;9.10;6.38;;;;;;;;;;5023733;28;20029;-72
2021/07/19 01:08:46;;;;;;;10.93;7.13;;;;;;;;;;5019840;28;20029;-72
2021/07/19 01:11:13;;;;;;;13.35;6.90;;;;;;;;;;5022399;28;20470;-72
2021/07/19 01:13:39;;;;;;;13.45;7.28;;;;;;;;;;5015259;28;20348;-71
2021/07/19 01:16:06;;;;;;;11.55;6.78;;;;;;;;;;5023928;28;20035;-72
2021/07/19 01:18:32;;;;;;;9.95;6.80;;;;;;;;;;5023878;28;20053;-72
2021/07/19 01:21:05;;;;;;;9.70;6.65;;;;;;;;;;5020495;28;20082;-72
2021/07/19 01:23:41;;;;;;;8.98;5.93;;;;;;;;;;5021920;28;20569;-72
2021/07/19 01:26:10;;;;;;;9.40;6.50;;;;;;;;;;5019476;28;20037;-72
2021/07/19 01:28:47;;;;;;;11.63;7.15;;;;;;;;;;5020922;28;20029;-72
2021/07/19 01:31:33;;;;;;;7.43;6.05;;;;;;;;;;5019555;28;20520;-72
2021/07/19 01:34:10;;;;;;;9.98;6.40;;;;;;;;;;5017710;28;20363;-72
2021/07/19 01:36:38;;;;;;;9.35;6.25;;;;;;;;;;5019674;28;20028;-72
2021/07/19 01:39:05;;;;;;;9.27;6.88;;;;;;;;;;5019799;28;20032;-71
2021/07/19 01:41:32;;;;;;;13.93;6.60;;;;;;;;;;5020905;28;20037;-72
2021/07/19 01:43:58;;;;;;;7.88;6.38;;;;;;;;;;5021998;28;20025;-72
2021/07/19 01:46:25;;;;;;;8.82;6.05;;;;;;;;;;5019640;28;20064;-72
2021/07/19 01:48:52;;;;;;;8.02;5.95;;;;;;;;;;5020076;28;20036;-70
2021/07/19 01:51:19;;;;;;;15.00;6.40;;;;;;;;;;5022127;28;20021;-72
2021/07/19 01:53:45;;;;;;;15.13;6.15;;;;;;;;;;5022161;28;20405;-72
2021/07/19 01:56:12;;;;;;;10.68;6.35;;;;;;;;;;5016979;28;20036;-72
2021/07/19 01:58:38;;;;;;;8.73;5.82;;;;;;;;;;5021332;28;20029;-72
2021/07/19 02:01:06;;;;;;;10.65;6.72;;;;;;;;;;5015471;28;20029;-71
2021/07/19 02:03:32;;;;;;;9.60;6.93;;;;;;;;;;5020523;28;20029;-72
2021/07/19 02:05:59;;;;;;;12.60;6.35;;;;;;;;;;5029800;28;20018;-72
2021/07/19 02:08:25;;;;;;;12.05;6.05;;;;;;;;;;5020088;28;20112;-72
2021/07/19 02:10:52;;;;;;;9.68;6.10;;;;;;;;;;5020808;28;20026;-73
2021/07/19 02:13:20;;;;;;;7.95;6.43;;;;;;;;;;5018865;28;20033;-72
2021/07/19 02:15:47;;;;;;;7.90;6.45;;;;;;;;;;5021595;28;20030;-72
2021/07/19 02:18:14;;;;;;;12.05;6.82;;;;;;;;;;5016121;28;20053;-72
2021/07/19 02:20:41;;;;;;;14.18;6.50;;;;;;;;;;5022645;28;20021;-73
2021/07/19 02:23:08;;;;;;;12.05;5.72;;;;;;;;;;5021870;28;20021;-72
2021/07/19 02:25:35;;;;;;;9.23;6.65;;;;;;;;;;5014601;28;20025;-72
2021/07/19 02:28:02;;;;;;;11.02;6.63;;;;;;;;;;5021613;28;20025;-72
2021/07/19 02:30:28;;;;;;;12.98;5.97;;;;;;;;;;5017926;28;20037;-72
2021/07/19 02:32:59;;;;;;;10.88;6.38;;;;;;;;;;5022694;28;20025;-72
2021/07/19 02:35:25;;;;;;;7.63;5.78;;;;;;;;;;5018778;28;20018;-73
2021/07/19 02:37:53;;;;;;;8.23;5.32;;;;;;;;;;5020382;28;20055;-72
2021/07/19 02:40:20;;;;;;;7.57;5.32;;;;;;;;;;5025348;28;20147;-72
2021/07/19 02:42:49;;;;;;;8.07;5.38;;;;;;;;;;5023264;28;20485;-72
2021/07/19 02:45:16;;;;;;;10.63;5.43;;;;;;;;;;5019813;28;20029;-72
2021/07/19 02:47:46;;;;;;;10.93;5.30;;;;;;;;;;5016393;28;20029;-72
2021/07/19 02:50:13;;;;;;;9.30;5.47;;;;;;;;;;5013685;28;20033;-72
2021/07/19 02:52:40;;;;;;;8.25;4.88;;;;;;;;;;5016246;28;20030;-73
2021/07/19 02:55:07;;;;;;;11.48;5.63;;;;;;;;;;5016748;28;20029;-72
2021/07/19 02:57:35;;;;;;;10.15;5.28;;;;;;;;;;5018568;28;20021;-72
2021/07/19 03:00:01;;;;;;;8.10;4.90;;;;;;;;;;5016751;28;20025;-72
2021/07/19 03:02:28;;;;;;;7.85;4.90;;;;;;;;;;5018893;28;20033;-72
2021/07/19 03:04:55;;;;;;;11.98;5.32;;;;;;;;;;5021710;28;20412;-72
2021/07/19 03:07:23;;;;;;;10.23;5.45;;;;;;;;;;5025726;28;20017;-72
2021/07/19 03:09:54;;;;;;;9.07;5.53;;;;;;;;;;5025460;28;20017;-72
2021/07/19 03:12:22;;;;;;;11.82;5.20;;;;;;;;;;5025721;28;20025;-72
2021/07/19 03:14:49;;;;;;;6.82;4.82;;;;;;;;;;5024026;28;20013;-71
2021/07/19 03:17:17;;;;;;;8.45;4.55;;;;;;;;;;5024960;28;20037;-71
2021/07/19 03:19:43;;;;;;;9.35;5.43;;;;;;;;;;5025476;28;20109;-71
2021/07/19 03:22:11;;;;;;;10.45;5.32;;;;;;;;;;5025822;28;20045;-71
2021/07/19 03:24:37;;;;;;;11.48;5.20;;;;;;;;;;5023759;28;20105;-71
2021/07/19 03:27:04;;;;;;;8.30;4.93;;;;;;;;;;5025835;28;20055;-72
2021/07/19 03:29:30;;;;;;;11.00;4.90;;;;;;;;;;5025709;28;20040;-72
2021/07/19 03:31:58;;;;;;;11.18;5.30;;;;;;;;;;5025977;28;20025;-71
2021/07/19 03:34:24;;;;;;;9.60;4.53;;;;;;;;;;5023802;28;20028;-72
2021/07/19 03:36:53;;;;;;;9.75;5.55;;;;;;;;;;5025158;28;20108;-72
2021/07/19 03:39:19;;;;;;;6.88;5.18;;;;;;;;;;5025128;28;20026;-72
2021/07/19 03:41:45;;;;;;;9.10;5.47;;;;;;;;;;5024325;28;20041;-72
2021/07/19 03:44:12;;;;;;;9.88;5.60;;;;;;;;;;5025219;28;20018;-72
2021/07/19 03:46:40;;;;;;;8.50;5.15;;;;;;;;;;5025138;28;20032;-72
2021/07/19 03:49:06;;;;;;;11.88;5.00;;;;;;;;;;5025116;28;20033;-72
2021/07/19 03:51:33;;;;;;;10.40;5.20;;;;;;;;;;5024915;28;20528;-71
2021/07/19 03:53:59;;;;;;;22.48;13.15;;;;;;;;;;5022244;28;20021;-72
2021/07/19 03:56:27;;;;;;;10.88;6.15;;;;;;;;;;5025019;28;20498;-72
2021/07/19 03:58:54;;;;;;;9.48;5.30;;;;;;;;;;5024755;28;20032;-72
2021/07/19 04:01:20;;;;;;;9.98;5.30;;;;;;;;;;5025035;28;20033;-72
2021/07/19 04:03:52;;;;;;;11.50;5.90;;;;;;;;;;5024515;28;20035;-72
2021/07/19 04:06:20;;;;;;;18.45;7.55;;;;;;;;;;5024983;28;20025;-72
2021/07/19 04:08:47;;;;;;;14.43;6.93;;;;;;;;;;5022689;28;20027;-72
2021/07/19 04:11:15;;;;;;;23.30;12.60;;;;;;;;;;5024603;28;20096;-71
2021/07/19 04:13:42;;;;;;;9.57;5.30;;;;;;;;;;5024267;28;20182;-71
2021/07/19 04:16:08;;;;;;;13.65;6.32;;;;;;;;;;5024602;28;20053;-72
2021/07/19 04:18:35;;;;;;;10.13;5.82;;;;;;;;;;5022824;28;20045;-72
2021/07/19 04:21:03;;;;;;;17.30;5.85;;;;;;;;;;5024162;28;20923;-72
2021/07/19 04:23:32;;;;;;;12.30;5.82;;;;;;;;;;5024560;28;20672;-71
2021/07/19 04:25:58;;;;;;;13.07;6.35;;;;;;;;;;5024247;28;20086;-72
2021/07/19 04:28:25;;;;;;;14.88;8.30;;;;;;;;;;5022705;28;20021;-72
2021/07/19 04:30:52;;;;;;;16.38;9.20;;;;;;;;;;5024326;28;20088;-71
2021/07/19 04:33:19;;;;;;;11.32;6.70;;;;;;;;;;5024577;28;20027;-72
2021/07/19 04:35:46;;;;;;;10.90;5.90;;;;;;;;;;5024300;28;20021;-72
2021/07/19 04:38:13;;;;;;;8.90;5.25;;;;;;;;;;5021183;28;20708;-72
2021/07/19 04:40:39;;;;;;;9.25;5.65;;;;;;;;;;5024171;28;20034;-72
2021/07/19 04:43:05;;;;;;;17.77;6.20;;;;;;;;;;5023825;28;20112;-72
2021/07/19 04:45:31;;;;;;;14.93;6.28;;;;;;;;;;5022575;28;20017;-72
2021/07/19 04:47:57;;;;;;;9.93;6.00;;;;;;;;;;5023968;28;20030;-72
2021/07/19 04:50:23;;;;;;;10.25;5.07;;;;;;;;;;5024198;28;20029;-72
2021/07/19 04:52:50;;;;;;;10.05;5.60;;;;;;;;;;5023812;28;20096;-72
2021/07/19 04:55:20;;;;;;;8.57;5.63;;;;;;;;;;5023570;28;20029;-72
2021/07/19 04:57:49;;;;;;;11.18;5.30;;;;;;;;;;5023759;28;20048;-72
2021/07/19 05:00:15;;;;;;;8.23;5.22;;;;;;;;;;5022111;28;20025;-72
2021/07/19 05:02:43;;;;;;;8.95;5.22;;;;;;;;;;5023783;28;20033;-72
2021/07/19 05:05:12;;;;;;;7.65;5.50;;;;;;;;;;5023556;28;20026;-72
2021/07/19 05:07:39;;;;;;;11.85;5.57;;;;;;;;;;5023877;28;20025;-72
2021/07/19 05:10:08;;;;;;;8.88;4.55;;;;;;;;;;5022025;28;20026;-72
2021/07/19 05:12:35;;;;;;;8.57;5.03;;;;;;;;;;5023479;28;20041;-72
2021/07/19 05:15:01;;;;;;;9.80;5.15;;;;;;;;;;5023623;28;20017;-72
2021/07/19 05:17:27;;;;;;;8.18;4.65;;;;;;;;;;5022991;28;20943;-73
2021/07/19 05:19:54;;;;;;;14.57;4.80;;;;;;;;;;5021960;28;20033;-72
2021/07/19 05:22:20;;;;;;;6.18;4.50;;;;;;;;;;5022763;28;20083;-71
2021/07/19 05:24:46;;;;;;;6.40;4.85;;;;;;;;;;5023263;28;20057;-73
2021/07/19 05:27:13;;;;;;;5.43;4.65;;;;;;;;;;5021888;28;20385;-72
2021/07/19 05:29:40;;;;;;;5.93;4.25;;;;;;;;;;5021890;28;20034;-72
2021/07/19 05:32:07;;;;;;;6.30;4.28;;;;;;;;;;5023243;28;20101;-71
2021/07/19 05:34:33;;;;;;;8.85;4.97;;;;;;;;;;5022663;28;20022;-71
2021/07/19 05:36:59;;;;;;;6.32;4.15;;;;;;;;;;5022924;28;20025;-71
2021/07/19 05:39:26;;;;;;;7.70;4.47;;;;;;;;;;5022849;28;20391;-72
2021/07/19 05:41:52;;;;;;;6.28;4.20;;;;;;;;;;5022589;28;20045;-70
2021/07/19 05:44:19;;;;;;;5.30;3.95;;;;;;;;;;5021591;28;20025;-71
2021/07/19 05:46:45;;;;;;;4.18;3.65;;;;;;;;;;5022944;28;20021;-71
2021/07/19 05:49:12;;;;;;;8.15;4.40;;;;;;;;;;5022662;28;20103;-71
2021/07/19 05:51:38;;;;;;;5.55;4.35;;;;;;;;;;5022264;28;20100;-71
2021/07/19 05:54:04;;;;;;;6.97;4.40;;;;;;;;;;5021344;28;20029;-71
2021/07/19 05:56:31;;;;;;;7.60;4.32;;;;;;;;;;5020970;28;20064;-72
2021/07/19 05:58:58;;;;;;;5.38;3.95;;;;;;;;;;5022369;28;20028;-72
2021/07/19 06:01:24;;;;;;;5.88;4.07;;;;;;;;;;5022870;28;20037;-72
2021/07/19 06:03:50;;;;;;;7.25;4.07;;;;;;;;;;5022138;28;20108;-72
2021/07/19 06:06:16;;;;;;;8.95;4.63;;;;;;;;;;5022427;28;20113;-72
2021/07/19 06:08:43;;;;;;;5.80;4.05;;;;;;;;;;5022555;28;20461;-72
2021/07/19 06:11:09;;;;;;;8.13;4.13;;;;;;;;;;5020776;28;20033;-71
2021/07/19 06:13:35;;;;;;;6.97;3.72;;;;;;;;;;5022565;28;20044;-72
2021/07/19 06:16:02;;;;;;;5.32;3.72;;;;;;;;;;5021906;28;20527;-71
2021/07/19 06:18:28;;;;;;;6.30;3.83;;;;;;;;;;5021800;28;20073;-72
2021/07/19 06:20:54;;;;;;;5.65;3.50;;;;;;;;;;5021983;28;20083;-72
2021/07/19 06:23:20;;;;;;;5.63;4.15;;;;;;;;;;5020620;28;20504;-72
2021/07/19 06:25:46;;;;;;;5.97;3.92;;;;;;;;;;5021516;28;20033;-72
2021/07/19 06:28:13;;;;;;;4.57;3.53;;;;;;;;;;5021435;28;20029;-73
2021/07/19 06:30:39;;;;;;;6.30;4.15;;;;;;;;;;5021131;28;20075;-72
2021/07/19 06:33:05;;;;;;;6.88;4.05;;;;;;;;;;5020286;28;20030;-72
2021/07/19 06:35:31;;;;;;;5.35;3.92;;;;;;;;;;5021008;28;20025;-72
2021/07/19 06:37:58;;;;;;;5.45;3.80;;;;;;;;;;5020689;28;20029;-72
2021/07/19 06:40:24;;;;;;;6.63;3.60;;;;;;;;;;5021857;28;20030;-73
2021/07/19 06:42:50;;;;;;;5.32;3.80;;;;;;;;;;5020888;28;20037;-72
2021/07/19 06:45:17;;;;;;;7.78;4.22;;;;;;;;;;5021291;28;20040;-74
2021/07/19 06:47:43;;;;;;;5.07;3.72;;;;;;;;;;5018754;28;20036;-72
2021/07/19 06:50:10;;;;;;;8.23;3.88;;;;;;;;;;5021504;28;20060;-72
2021/07/19 06:52:37;;;;;;;5.05;3.97;;;;;;;;;;5021172;28;20109;-72
2021/07/19 06:55:04;;;;;;;4.60;3.67;;;;;;;;;;5021249;28;20030;-72
2021/07/19 06:57:31;;;;;;;5.47;3.38;;;;;;;;;;5021518;28;20017;-73
2021/07/19 06:59:57;;;;;;;6.40;3.78;;;;;;;;;;5019413;28;20509;-73
2021/07/19 07:02:23;;;;;;;5.75;3.70;;;;;;;;;;5020550;28;20037;-73
2021/07/19 07:04:49;;;;;;;4.53;3.70;;;;;;;;;;5020835;28;20029;-73
2021/07/19 07:07:15;;;;;;;6.60;3.80;;;;;;;;;;5019332;28;20067;-73
2021/07/19 07:09:41;;;;;;;6.82;3.85;;;;;;;;;;5003156;28;20595;-72
2021/07/19 07:12:08;;;;;;;6.00;3.90;;;;;;;;;;5005958;28;20021;-73
2021/07/19 07:14:34;;;;;;;5.80;3.70;;;;;;;;;;5001381;28;20048;-73
2021/07/19 07:17:00;;;;;;;5.72;3.72;;;;;;;;;;5003748;28;20490;-72
2021/07/19 07:19:26;;;;;;;6.25;4.10;;;;;;;;;;5004399;28;20037;-73
2021/07/19 07:21:53;;;;;;;6.40;4.30;;;;;;;;;;5002151;28;20040;-73
2021/07/19 07:24:19;;;;;;;5.05;4.20;;;;;;;;;;5006287;28;20068;-73
2021/07/19 07:26:46;;;;;;;4.43;3.63;;;;;;;;;;5002097;28;20593;-73
2021/07/19 07:29:12;;;;;;;4.97;3.92;;;;;;;;;;5002979;28;20045;-71
2021/07/19 07:31:38;;;;;;;4.85;4.13;;;;;;;;;;5002297;28;20025;-72
2021/07/19 07:34:05;;;;;;;5.35;3.90;;;;;;;;;;5004258;28;20393;-72
2021/07/19 07:36:35;;;;;;;5.35;3.80;;;;;;;;;;5012464;28;20042;-73
2021/07/19 07:39:03;;;;;;;7.03;3.53;;;;;;;;;;5016374;28;20493;-72
2021/07/19 07:41:29;;;;;;;3.53;3.22;;;;;;;;;;5010522;28;20041;-72
2021/07/19 07:43:56;;;;;;;4.72;3.70;;;;;;;;;;5016108;28;20018;-72
2021/07/19 07:46:23;;;;;;;4.25;3.85;;;;;;;;;;5009263;28;20029;-73
2021/07/19 07:48:49;;;;;;;7.43;3.80;;;;;;;;;;5012634;28;20104;-73
2021/07/19 07:51:15;;;;;;;10.13;4.28;;;;;;;;;;5021557;28;20064;-73
2021/07/19 07:53:41;;;;;;;5.65;4.13;;;;;;;;;;5016385;28;20056;-73
2021/07/19 07:56:08;;;;;;;6.90;4.18;;;;;;;;;;5015554;28;20037;-72
2021/07/19 07:58:34;;;;;;;7.10;3.85;;;;;;;;;;5017795;28;20025;-73
2021/07/19 08:01:00;;;;;;;6.38;3.88;;;;;;;;;;5014791;28;20030;-73
2021/07/19 08:03:26;;;;;;;5.22;3.80;;;;;;;;;;5013105;28;20552;-73
2021/07/19 08:05:52;;;;;;;8.25;4.43;;;;;;;;;;5013959;28;20026;-73
2021/07/19 08:08:18;;;;;;;5.20;4.10;;;;;;;;;;5012952;28;20105;-73
2021/07/19 08:10:45;;;;;;;7.72;4.22;;;;;;;;;;5009827;28;20049;-73
2021/07/19 08:13:11;;;;;;;7.25;3.78;;;;;;;;;;5007762;28;20040;-72
2021/07/19 08:15:39;;;;;;;7.25;4.32;;;;;;;;;;5006055;28;20034;-72
2021/07/19 08:18:05;;;;;;;8.25;4.60;;;;;;;;;;5006086;28;20046;-71
2021/07/19 08:20:32;;;;;;;8.55;4.57;;;;;;;;;;5006518;28;20067;-73
2021/07/19 08:22:58;;;;;;;5.45;4.30;;;;;;;;;;5006312;28;20095;-73
2021/07/19 08:25:24;;;;;;;15.82;5.75;;;;;;;;;;5005355;28;20490;-73
2021/07/19 08:27:50;;;;;;;8.73;4.72;;;;;;;;;;5006386;28;20593;-73
2021/07/19 08:30:18;;;;;;;6.88;4.72;;;;;;;;;;5007257;28;20494;-74
2021/07/19 08:32:46;;;;;;;7.65;4.25;;;;;;;;;;5007329;28;20030;-72
2021/07/19 08:35:12;;;;;;;6.43;4.72;;;;;;;;;;5008855;28;20500;-73
2021/07/19 08:37:39;;;;;;;5.95;4.40;;;;;;;;;;5005990;28;20463;-73
2021/07/19 08:40:06;;;;;;;7.32;4.20;;;;;;;;;;5016841;28;20028;-73
2021/07/19 08:42:34;;;;;;;7.55;4.28;;;;;;;;;;5010380;28;20120;-73
2021/07/19 08:45:00;;;;;;;6.85;4.80;;;;;;;;;;5005852;28;20026;-72
2021/07/19 08:47:26;;;;;;;8.30;4.95;;;;;;;;;;5014364;28;20466;-73
2021/07/19 08:49:52;;;;;;;9.90;5.25;;;;;;;;;;5023603;28;20624;-73
2021/07/19 08:52:21;;;;;;;10.20;5.03;;;;;;;;;;5022104;28;20029;-72
2021/07/19 08:54:48;;;;;;;6.30;4.88;;;;;;;;;;5020045;28;20524;-73
2021/07/19 08:57:15;;;;;;;6.72;5.13;;;;;;;;;;5017287;28;20025;-73
2021/07/19 08:59:41;;;;;;;9.80;4.97;;;;;;;;;;5022889;28;20021;-73
2021/07/19 09:02:08;;;;;;;6.00;4.75;;;;;;;;;;5022252;28;20057;-73
2021/07/19 09:04:37;;;;;;;7.07;4.68;;;;;;;;;;5023460;28;20021;-73
2021/07/19 09:07:04;;;;;;;7.95;5.50;;;;;;;;;;5022808;28;20543;-72
2021/07/19 09:09:34;;;;;;;8.45;4.85;;;;;;;;;;5022226;28;20036;-73
2021/07/19 09:12:01;;;;;;;7.75;4.72;;;;;;;;;;5021639;28;20056;-73
2021/07/19 09:14:28;;;;;;;9.32;4.40;;;;;;;;;;5018430;28;20095;-72
2021/07/19 09:16:54;;;;;;;10.60;5.40;;;;;;;;;;5022233;28;20071;-72
2021/07/19 09:19:22;;;;;;;11.88;5.40;;;;;;;;;;5022727;28;20021;-73
2021/07/19 09:21:55;;;;;;;7.40;5.30;;;;;;;;;;5020534;28;20033;-72
2021/07/19 09:24:22;;;;;;;6.85;4.90;;;;;;;;;;5021322;28;20190;-73
2021/07/19 09:26:51;;;;;;;7.80;5.80;;;;;;;;;;5021956;28;20104;-73
2021/07/19 09:29:19;;;;;;;5.93;4.28;;;;;;;;;;5022362;28;20604;-73
2021/07/19 09:31:53;;;;;;;5.85;4.45;;;;;;;;;;5020918;28;20025;-73
2021/07/19 09:34:21;;;;;;;9.10;4.75;;;;;;;;;;5017871;28;20366;-73
2021/07/19 09:37:03;;;;;;;8.45;5.40;;;;;;;;;;5017391;28;20033;-72
2021/07/19 09:39:31;;;;;;;12.35;5.38;;;;;;;;;;5015934;28;20026;-72
2021/07/19 09:42:15;;;;;;;7.45;5.53;;;;;;;;;;5020745;28;20053;-72
2021/07/19 09:44:42;;;;;;;7.38;5.38;;;;;;;;;;5008175;28;20099;-73
2021/07/19 09:47:11;;;;;;;5.85;4.53;;;;;;;;;;5009820;28;20075;-72
2021/07/19 09:49:38;;;;;;;9.85;4.70;;;;;;;;;;5013026;28;20144;-72
2021/07/19 09:52:09;;;;;;;7.38;5.00;;;;;;;;;;5021063;28;20446;-71
2021/07/19 09:54:35;;;;;;;6.85;4.80;;;;;;;;;;5020675;28;20028;-72
2021/07/19 09:57:01;;;;;;;6.40;4.88;;;;;;;;;;5020873;28;20661;-72
2021/07/19 09:59:27;;;;;;;5.35;4.35;;;;;;;;;;5019895;28;20041;-73
2021/07/19 10:01:54;;;;;;;10.07;5.47;;;;;;;;;;5020675;28;20033;-72
2021/07/19 10:04:23;;;;;;;6.53;4.80;;;;;;;;;;5020437;28;20032;-72
2021/07/19 10:06:53;;;;;;;6.78;5.10;;;;;;;;;;5021566;28;20124;-72
2021/07/19 10:09:20;;;;;;;6.60;4.38;;;;;;;;;;5018748;28;20040;-72
2021/07/19 10:11:53;;;;;;;7.50;4.38;;;;;;;;;;5015106;28;20028;-72
2021/07/19 10:14:30;;;;;;;6.05;4.80;;;;;;;;;;5019877;28;20484;-72
2021/07/19 10:16:57;;;;;;;9.85;4.57;;;;;;;;;;5020318;28;20104;-70
2021/07/19 10:19:24;;;;;;;9.70;4.95;;;;;;;;;;5019254;28;20037;-72
2021/07/19 10:21:50;;;;;;;5.88;4.35;;;;;;;;;;5020328;28;20021;-72
2021/07/19 10:24:17;;;;;;;9.60;4.72;;;;;;;;;;5017551;28;20037;-71
2021/07/19 10:26:44;;;;;;;7.55;4.80;;;;;;;;;;5015126;28;20120;-72
2021/07/19 10:29:11;;;;;;;7.45;4.80;;;;;;;;;;5012634;28;20021;-72
2021/07/19 10:31:37;;;;;;;8.00;5.00;;;;;;;;;;5010259;28;20087;-71
2021/07/19 10:34:05;;;;;;;8.75;4.82;;;;;;;;;;5016727;28;20029;-72
2021/07/19 10:36:33;;;;;;;5.18;4.38;;;;;;;;;;5020234;28;20115;-71
2021/07/19 10:39:01;;;;;;;9.82;4.55;;;;;;;;;;5015595;28;20098;-72
2021/07/19 10:41:28;;;;;;;5.35;4.10;;;;;;;;;;5020307;28;20038;-72
2021/07/19 10:44:01;;;;;;;5.20;4.60;;;;;;;;;;5020042;28;20091;-71
2021/07/19 10:46:27;;;;;;;7.45;5.07;;;;;;;;;;5017554;28;20030;-72
2021/07/19 10:49:02;;;;;;;7.22;4.75;;;;;;;;;;5019627;28;20037;-73
2021/07/19 10:51:38;;;;;;;5.88;4.18;;;;;;;;;;5019522;28;20025;-73
2021/07/19 10:54:24;;;;;;;9.70;5.00;;;;;;;;;;5014952;28;20029;-72
2021/07/19 10:56:55;;;;;;;6.28;4.80;;;;;;;;;;5015839;28;20112;-72
2021/07/19 10:59:24;;;;;;;6.23;4.70;;;;;;;;;;5018746;28;20060;-72
2021/07/19 11:01:57;;;;;;;8.48;4.53;;;;;;;;;;5019707;28;20496;-70
2021/07/19 11:04:23;;;;;;;6.78;4.57;;;;;;;;;;5019944;28;20045;-72
2021/07/19 11:06:56;;;;;;;10.15;5.28;;;;;;;;;;5018490;28;20525;-71
2021/07/19 11:09:32;;;;;;;8.90;5.28;;;;;;;;;;5017551;28;20117;-73
2021/07/19 11:12:06;;;;;;;8.50;6.05;;;;;;;;;;5018675;28;20021;-72
2021/07/19 11:14:41;;;;;;;8.82;6.22;;;;;;;;;;5017357;28;20472;-72
2021/07/19 11:17:10;;;;;;;7.03;5.70;;;;;;;;;;5019983;28;20045;-72
2021/07/19 11:19:39;;;;;;;6.93;4.85;;;;;;;;;;5019490;28;20029;-72
2021/07/19 11:22:32;;;;;;;7.35;5.18;;;;;;;;;;5022814;28;20145;-73
2021/07/19 11:25:12;;;;;;;6.78;4.70;;;;;;;;;;5015392;28;20048;-72
2021/07/19 11:27:43;;;;;;;6.25;4.57;;;;;;;;;;5021053;28;20053;-72
2021/07/19 11:30:10;;;;;;;11.50;4.90;;;;;;;;;;5024241;28;20154;-71
2021/07/19 11:32:38;;;;;;;8.10;4.95;;;;;;;;;;5023695;28;20021;-72
2021/07/19 11:35:09;;;;;;;6.15;4.90;;;;;;;;;;5017786;28;20033;-72
2021/07/19 11:37:36;;;;;;;8.85;5.15;;;;;;;;;;5021189;28;20503;-72
2021/07/19 11:40:03;;;;;;;8.88;4.63;;;;;;;;;;5022904;28;20030;-72
2021/07/19 11:42:29;;;;;;;8.70;4.95;;;;;;;;;;5022645;28;20034;-71
2021/07/19 11:45:02;;;;;;;7.70;4.65;;;;;;;;;;5021370;28;20514;-70
2021/07/19 11:47:29;;;;;;;6.93;4.93;;;;;;;;;;5023631;28;20080;-69
2021/07/19 11:50:03;;;;;;;8.25;5.18;;;;;;;;;;5022717;28;20022;-70
2021/07/19 11:52:30;;;;;;;5.72;5.00;;;;;;;;;;5019448;28;20481;-69
2021/07/19 11:54:56;;;;;;;5.68;4.95;;;;;;;;;;5020869;28;20084;-70
2021/07/19 11:57:22;;;;;;;8.32;5.22;;;;;;;;;;5022706;28;20033;-70
2021/07/19 11:59:49;;;;;;;12.45;5.00;;;;;;;;;;5022385;28;20507;-72
2021/07/19 12:02:25;;;;;;;8.18;5.10;;;;;;;;;;5022841;28;20038;-70
2021/07/19 12:04:51;;;;;;;8.38;5.22;;;;;;;;;;5022890;28;20027;-72
2021/07/19 12:07:17;;;;;;;9.18;4.95;;;;;;;;;;5021469;28;20069;-71
2021/07/19 12:09:45;;;;;;;9.55;5.53;;;;;;;;;;5021129;28;20029;-70
2021/07/19 12:12:12;;;;;;;5.95;5.38;;;;;;;;;;5021291;28;20117;-71
2021/07/19 12:14:38;;;;;;;7.82;5.45;;;;;;;;;;5022658;28;20034;-73
2021/07/19 12:17:05;;;;;;;9.25;5.47;;;;;;;;;;5022370;28;20073;-71
2021/07/19 12:19:31;;;;;;;8.40;5.55;;;;;;;;;;5021511;28;20104;-70
2021/07/19 12:22:00;;;;;;;10.52;5.88;;;;;;;;;;5021575;28;20045;-71
2021/07/19 12:24:27;;;;;;;9.43;6.43;;;;;;;;;;5021611;28;20026;-71
2021/07/19 12:26:57;;;;;;;8.85;6.32;;;;;;;;;;5021992;28;20063;-71
2021/07/19 12:29:28;;;;;;;9.77;5.78;;;;;;;;;;5022271;28;20155;-72
2021/07/19 12:31:55;;;;;;;10.05;6.15;;;;;;;;;;5021311;28;20501;-72
2021/07/19 12:34:22;;;;;;;9.48;5.60;;;;;;;;;;5020898;28;20045;-71
2021/07/19 12:36:55;;;;;;;10.00;6.28;;;;;;;;;;5022078;28;20508;-71
2021/07/19 12:39:27;;;;;;;9.32;6.40;;;;;;;;;;5015492;28;20104;-71
2021/07/19 12:41:53;;;;;;;7.60;6.32;;;;;;;;;;5012664;28;20513;-71
2021/07/19 12:44:21;;;;;;;8.73;6.05;;;;;;;;;;5018474;28;20033;-70
2021/07/19 12:46:48;;;;;;;9.52;6.63;;;;;;;;;;5021521;28;20107;-73
2021/07/19 12:49:25;;;;;;;9.10;6.35;;;;;;;;;;5022129;28;20026;-70
2021/07/19 12:51:56;;;;;;;11.30;7.28;;;;;;;;;;5022661;28;20156;-74
2021/07/19 12:54:22;;;;;;;9.73;6.95;;;;;;;;;;5021196;28;20029;-71
2021/07/19 12:56:50;;;;;;;11.35;7.00;;;;;;;;;;5021557;28;20029;-71
2021/07/19 12:59:17;;;;;;;7.93;6.20;;;;;;;;;;5020744;28;20067;-71
2021/07/19 13:01:44;;;;;;;10.85;7.05;;;;;;;;;;5022367;28;20049;-71
2021/07/19 13:04:16;;;;;;;12.75;7.28;;;;;;;;;;5020248;28;20037;-72
2021/07/19 13:06:43;;;;;;;8.38;6.28;;;;;;;;;;5022161;28;20021;-70
2021/07/19 13:09:10;;;;;;;9.90;6.70;;;;;;;;;;5021357;28;20029;-70
2021/07/19 13:11:38;;;;;;;10.18;6.88;;;;;;;;;;5022722;28;20105;-70
2021/07/19 13:14:08;;;;;;;13.18;6.57;;;;;;;;;;5020376;28;20112;-70
2021/07/19 13:16:34;;;;;;;9.55;6.28;;;;;;;;;;5022587;28;20029;-70
2021/07/19 13:19:00;;;;;;;9.95;6.57;;;;;;;;;;5021934;28;20053;-71
2021/07/19 13:21:26;;;;;;;10.18;6.50;;;;;;;;;;5022939;28;20664;-70
2021/07/19 13:23:53;;;;;;;10.50;6.57;;;;;;;;;;5021846;28;20086;-70
2021/07/19 13:26:19;;;;;;;7.68;5.90;;;;;;;;;;5022161;28;20516;-69
2021/07/19 13:28:45;;;;;;;11.38;6.50;;;;;;;;;;5021256;28;20022;-70
2021/07/19 13:31:11;;;;;;;12.07;7.82;;;;;;;;;;5021956;28;20029;-71
2021/07/19 13:33:44;;;;;;;10.85;7.30;;;;;;;;;;5022101;28;20113;-70
2021/07/19 13:36:12;;;;;;;12.43;7.10;;;;;;;;;;5021921;28;20055;-69
2021/07/19 13:38:40;;;;;;;8.77;6.40;;;;;;;;;;5021840;28;20030;-70
2021/07/19 13:41:06;;;;;;;10.90;7.10;;;;;;;;;;5021041;28;20041;-70
2021/07/19 13:43:37;;;;;;;14.70;7.97;;;;;;;;;;5019626;28;20972;-71
2021/07/19 13:46:03;;;;;;;9.40;6.85;;;;;;;;;;5021892;28;20045;-71
2021/07/19 13:48:29;;;;;;;10.20;7.13;;;;;;;;;;5021223;28;20033;-72
2021/07/19 13:50:56;;;;;;;16.15;7.47;;;;;;;;;;5021199;28;20029;-72
2021/07/19 13:53:22;;;;;;;9.25;6.68;;;;;;;;;;5020702;28;20029;-70
2021/07/19 13:55:57;;;;;;;10.48;7.35;;;;;;;;;;5020742;28;20025;-71
2021/07/19 13:58:26;;;;;;;10.52;7.30;;;;;;;;;;5017157;28;20034;-71
2021/07/19 14:00:52;;;;;;;10.95;7.35;;;;;;;;;;5020095;28;20746;-71
2021/07/19 14:03:18;;;;;;;16.80;7.47;;;;;;;;;;5016839;28;20041;-71
2021/07/19 14:05:45;;;;;;;13.43;7.75;;;;;;;;;;5019766;28;20532;-70
2021/07/19 14:08:12;;;;;;;15.82;7.57;;;;;;;;;;5021244;28;20025;-71
2021/07/19 14:10:39;;;;;;;8.25;7.38;;;;;;;;;;5020962;28;20104;-71
2021/07/19 14:13:05;;;;;;;9.45;7.43;;;;;;;;;;5019346;28;20091;-71
2021/07/19 14:15:32;;;;;;;13.52;7.18;;;;;;;;;;5019649;28;20109;-73
2021/07/19 14:17:58;;;;;;;15.48;7.72;;;;;;;;;;5021490;28;20640;-72
2021/07/19 14:20:24;;;;;;;19.95;7.60;;;;;;;;;;5020372;28;20114;-72
2021/07/19 14:22:51;;;;;;;13.25;7.38;;;;;;;;;;5021214;28;20073;-72
2021/07/19 14:25:18;;;;;;;14.45;7.75;;;;;;;;;;5021243;28;20068;-72
2021/07/19 14:27:44;;;;;;;12.05;7.60;;;;;;;;;;5021076;28;20285;-73
2021/07/19 14:30:11;;;;;;;14.80;8.02;;;;;;;;;;5020564;28;20029;-73
2021/07/19 14:32:38;;;;;;;11.00;7.18;;;;;;;;;;5020973;28;20048;-72
2021/07/19 14:35:12;;;;;;;17.23;8.43;;;;;;;;;;5020212;28;20450;-72
2021/07/19 14:37:39;;;;;;;15.90;8.38;;;;;;;;;;5020830;28;20017;-72
2021/07/19 14:40:06;;;;;;;15.48;8.38;;;;;;;;;;5017770;28;20463;-73